Welcome to Des Moines Iowa Weather. I am an independent private personal weather station on the Northwest Side of Des Moines, Iowa. Just East of Windsor Heights and just West of Glendale . This site is also mobile friendly.

There are no active watches, warnings or advisories


Visit our other weather sites:

Historical Data

Weather Station Setup



Weather Underground History page Text

Daily Summary for October 4, 2017 Units:  English    Metric   Both
« Previous Day
Next Day »
Daily Weekly Monthly Yearly Custom
  High: Low: Average:
Temperature: 64.9 °F 53.0 °F 59.5 °F
Dew Point: 59.0 °F 50.0 °F 53.3 °F
Humidity: 96 % 59 % 81 %
Wind Speed: 3.0 mph 0.0 mph 0.2 mph
Wind Gust: 6.0 mph - -
Wind:- - NNE
Pressure: 30.39 in 30.23 in -
Precipitation: 0.16 in    
Historical Graphs
 
 
Tabular Data for October 4, 2017
Time Temperature Dew Point Pressure Wind Wind Speed Wind Gust Humidity Rainfall Rate (Hourly)
00:25 60.4 °F 59.0 °F 30.27 in Calm     95 % 0.00 in
00:40 60.4 °F 59.0 °F 30.27 in Calm     95 % 0.00 in
00:55 60.5 °F 59.0 °F 30.27 in Calm     95 % 0.06 in
01:10 60.6 °F 59.0 °F 30.27 in Calm     95 % 0.06 in
01:25 60.6 °F 59.0 °F 30.27 in Calm     95 % 0.06 in
01:40 60.5 °F 59.0 °F 30.27 in Calm     95 % 0.06 in
01:55 60.4 °F 59.0 °F 30.29 in Calm     95 % 0.00 in
02:11 60.4 °F 59.0 °F 30.28 in Calm     96 % 0.02 in
02:25 60.3 °F 59.0 °F 30.29 in Calm     95 % 0.02 in
02:40 60.2 °F 59.0 °F 30.29 in Calm     95 % 0.02 in
02:55 60.2 °F 59.0 °F 30.30 in Calm     96 % 0.02 in
03:10 60.1 °F 59.0 °F 30.30 in Calm     96 % 0.00 in
03:25 59.7 °F 59.0 °F 30.30 in Calm   3.0 mph 96 % 0.00 in
03:40 59.0 °F 58.0 °F 30.31 in Calm   4.0 mph 95 % 0.08 in
03:55 58.2 °F 57.0 °F 30.30 in NE 1.0 mph 2.0 mph 95 % 0.08 in
04:10 57.7 °F 56.0 °F 30.31 in Calm   3.0 mph 95 % 0.08 in
04:25 57.3 °F 56.0 °F 30.31 in Calm   2.0 mph 95 % 0.08 in
04:40 57.1 °F 56.0 °F 30.32 in Calm     95 % 0.00 in
04:55 56.9 °F 56.0 °F 30.32 in North 3.0 mph 5.0 mph 95 % 0.00 in
05:10 55.9 °F 54.0 °F 30.33 in NE 2.0 mph 5.0 mph 94 % 0.00 in
05:25 55.5 °F 54.0 °F 30.33 in NNE 3.0 mph 4.0 mph 94 % 0.00 in
05:40 55.2 °F 53.0 °F 30.34 in Calm   2.0 mph 93 % 0.00 in
05:55 55.0 °F 53.0 °F 30.33 in Calm   3.0 mph 93 % 0.00 in
06:10 54.9 °F 53.0 °F 30.34 in Calm   3.0 mph 92 % 0.00 in
06:25 54.8 °F 53.0 °F 30.35 in Calm   1.0 mph 92 % 0.00 in
06:40 54.9 °F 53.0 °F 30.35 in Calm   3.0 mph 92 % 0.00 in
06:55 54.9 °F 53.0 °F 30.35 in Calm   2.0 mph 92 % 0.00 in
07:10 54.8 °F 53.0 °F 30.35 in Calm   2.0 mph 92 % 0.00 in
07:25 54.6 °F 52.0 °F 30.36 in Calm     92 % 0.00 in
07:40 54.5 °F 52.0 °F 30.37 in Calm   2.0 mph 92 % 0.00 in
07:55 54.6 °F 52.0 °F 30.36 in Calm   2.0 mph 92 % 0.00 in
08:10 54.7 °F 53.0 °F 30.36 in North 1.0 mph 3.0 mph 92 % 0.00 in
08:25 54.7 °F 52.0 °F 30.35 in Calm   3.0 mph 91 % 0.00 in
08:40 54.9 °F 52.0 °F 30.36 in Calm   1.0 mph 90 % 0.00 in
08:55 55.2 °F 52.0 °F 30.36 in Calm   3.0 mph 90 % 0.00 in
09:10 55.7 °F 53.0 °F 30.37 in NNE 2.0 mph 2.0 mph 89 % 0.00 in
09:26 56.2 °F 52.0 °F 30.38 in Calm   3.0 mph 87 % 0.00 in
09:41 56.8 °F 52.0 °F 30.39 in Calm   4.0 mph 84 % 0.00 in
09:56 57.6 °F 52.0 °F 30.37 in Calm   4.0 mph 82 % 0.00 in
10:11 58.1 °F 51.0 °F 30.38 in Calm   3.0 mph 78 % 0.00 in
10:26 58.6 °F 52.0 °F 30.37 in Calm   3.0 mph 79 % 0.00 in
10:41 59.2 °F 52.0 °F 30.37 in Calm   4.0 mph 76 % 0.00 in
10:56 59.9 °F 51.0 °F 30.37 in Calm   6.0 mph 73 % 0.00 in
11:11 61.0 °F 52.0 °F 30.36 in Calm   4.0 mph 72 % 0.00 in
11:26 61.6 °F 52.0 °F 30.35 in Calm   4.0 mph 71 % 0.00 in
11:41 61.8 °F 52.0 °F 30.35 in Calm   5.0 mph 70 % 0.00 in
11:56 62.2 °F 51.0 °F 30.34 in ENE 1.0 mph 5.0 mph 68 % 0.00 in
12:11 62.8 °F 52.0 °F 30.35 in Calm   4.0 mph 68 % 0.00 in
12:26 63.4 °F 52.0 °F 30.36 in Calm   3.0 mph 67 % 0.00 in
12:41 64.2 °F 52.0 °F 30.36 in Calm   4.0 mph 65 % 0.00 in
12:57 64.3 °F 52.0 °F 30.35 in Calm   1.0 mph 65 % 0.00 in
13:11 64.1 °F 51.0 °F 30.35 in Calm     63 % 0.00 in
13:26 63.8 °F 51.0 °F 30.33 in Calm   3.0 mph 64 % 0.00 in
13:41 64.0 °F 53.0 °F 30.32 in North 1.0 mph 4.0 mph 67 % 0.00 in
13:56 64.1 °F 51.0 °F 30.31 in North 2.0 mph 5.0 mph 63 % 0.00 in
14:11 64.3 °F 51.0 °F 30.31 in Calm   3.0 mph 63 % 0.00 in
14:26 64.5 °F 51.0 °F 30.31 in Calm   2.0 mph 62 % 0.00 in
14:41 64.7 °F 51.0 °F 30.30 in Calm     61 % 0.00 in
14:56 64.9 °F 51.0 °F 30.29 in Calm   2.0 mph 60 % 0.00 in
15:11 64.8 °F 50.0 °F 30.27 in North 1.0 mph 3.0 mph 59 % 0.00 in
15:26 64.9 °F 53.0 °F 30.28 in Calm     65 % 0.00 in
15:41 64.8 °F 53.0 °F 30.28 in Calm     65 % 0.00 in
15:56 64.7 °F 54.0 °F 30.28 in Calm     69 % 0.00 in
16:11 64.6 °F 53.0 °F 30.27 in Calm     66 % 0.00 in
16:19 64.7 °F 53.1 °F 30.27 in Calm     66 % 0.00 in
16:24 64.7 °F 52.7 °F 30.27 in Calm     65 % 0.00 in
16:29 64.7 °F 52.7 °F 30.27 in Calm   1.0 mph 65 % 0.00 in
16:34 64.8 °F 52.8 °F 30.27 in Calm   3.0 mph 65 % 0.00 in
16:41 64.7 °F 52.0 °F 30.27 in Calm   3.0 mph 64 % 0.00 in
16:56 64.6 °F 52.0 °F 30.26 in Calm   1.0 mph 64 % 0.00 in
17:11 64.5 °F 52.0 °F 30.26 in Calm     64 % 0.00 in
17:26 64.5 °F 53.0 °F 30.25 in Calm     66 % 0.00 in
17:41 64.2 °F 53.0 °F 30.24 in Calm     68 % 0.00 in
17:56 63.9 °F 54.0 °F 30.25 in Calm     69 % 0.00 in
18:11 63.3 °F 54.0 °F 30.25 in Calm     71 % 0.00 in
18:26 62.6 °F 53.0 °F 30.24 in Calm     72 % 0.00 in
18:41 61.9 °F 53.0 °F 30.25 in Calm     72 % 0.00 in
19:12 60.5 °F 53.0 °F 30.25 in Calm     76 % 0.00 in
19:26 59.8 °F 53.0 °F 30.25 in Calm     78 % 0.00 in
19:41 59.1 °F 53.0 °F 30.25 in Calm     79 % 0.00 in
19:56 58.5 °F 52.0 °F 30.25 in Calm     80 % 0.00 in
20:11 57.9 °F 52.0 °F 30.25 in Calm     81 % 0.00 in
20:26 57.3 °F 52.0 °F 30.25 in Calm     82 % 0.00 in
20:41 56.8 °F 52.0 °F 30.24 in Calm     84 % 0.00 in
20:58 56.2 °F 52.0 °F 30.24 in Calm     84 % 0.00 in
21:11 55.8 °F 51.0 °F 30.24 in Calm     85 % 0.00 in
21:26 55.4 °F 51.0 °F 30.24 in Calm     86 % 0.00 in
21:41 55.2 °F 51.0 °F 30.24 in Calm     87 % 0.00 in
21:57 54.8 °F 51.0 °F 30.24 in Calm     87 % 0.00 in
22:17 54.5 °F 51.0 °F 30.24 in Calm     88 % 0.00 in
22:28 54.2 °F 51.0 °F 30.23 in Calm     88 % 0.00 in
22:42 53.9 °F 51.0 °F 30.23 in Calm     89 % 0.00 in
22:57 53.7 °F 51.0 °F 30.23 in Calm     89 % 0.00 in
23:27 53.3 °F 51.0 °F 30.23 in Calm     90 % 0.00 in
23:42 53.2 °F 51.0 °F 30.23 in Calm     91 % 0.00 in
23:57 53.0 °F 51.0 °F 30.23 in Calm     91 % 0.00 in
Des Moines Weather and Climate
Compliments of Weather Underground - 3 mb

Script developed by  Jim McMurry - jmcmurry@mwt.net Adapted for the template by  Wim van der Kuil - Leuven-Template.eu

You find our weather info also at:

Weather Underground

Equipment we use:

Weather-station
Davis VP2 Plus

Weather-program
Davis Weatherlink.Com

Weather-server
iMac (Retina 4K, 21.5-inch, Late 2015)

Provider
Hostmonster.com

Davis VP2 Plus

Davis Weatherlink.Com

iMac (Retina 4K, 21.5-inch, Late 2015)

Hostmonster.com